Time;durP1;ratioP1;P1;durP2;ratioP2;P2;SDS_P1;SDS_P2;PMS_P1;PMS_P2;Temp;Humidity;BMP_temperature;BMP_pressure;BME280_temperature;BME280_humidity;BME280_pressure;Samples;Min_cycle;Max_cycle;Signal;HPM_P1;HPM_P2
2023/10/01 00:00:12;;;;;;;4.83;3.10;;;17.30;67.70;16.20;97430.00;;;;5057923;28;20197;-84
2023/10/01 00:02:41;;;;;;;4.17;3.07;;;17.20;67.60;16.10;97435.00;;;;5052393;28;20225;-85
2023/10/01 00:05:10;;;;;;;4.37;2.73;;;17.20;67.70;16.10;97438.00;;;;5060433;28;20196;-85
2023/10/01 00:07:39;;;;;;;4.80;3.30;;;17.20;67.70;16.10;97438.00;;;;5055702;28;20221;-84
2023/10/01 00:10:10;;;;;;;5.07;3.43;;;17.20;67.80;16.00;97433.00;;;;5062921;28;20286;-85
2023/10/01 00:12:44;;;;;;;4.30;3.07;;;17.10;67.80;16.00;97436.00;;;;5030932;28;20200;-85
2023/10/01 00:15:14;;;;;;;4.83;3.17;;;17.10;67.90;16.00;97439.00;;;;5059038;28;20220;-84
2023/10/01 00:17:44;;;;;;;4.13;3.47;;;17.10;67.90;16.00;97430.00;;;;5040632;28;20267;-85
2023/10/01 00:20:17;;;;;;;3.60;2.53;;;17.10;67.90;15.90;97427.00;;;;5039322;28;20204;-85
2023/10/01 00:22:49;;;;;;;5.37;2.97;;;17.00;67.80;15.90;97428.00;;;;5056390;28;20254;-85
2023/10/01 00:25:18;;;;;;;4.83;3.10;;;17.00;68.60;15.90;97430.00;;;;5038880;28;20211;-85
2023/10/01 00:27:45;;;;;;;4.23;2.90;;;17.00;67.80;15.90;97427.00;;;;5038799;28;20270;-85
2023/10/01 00:30:13;;;;;;;4.87;2.90;;;17.00;67.80;15.90;97421.00;;;;5043631;28;21676;-85
2023/10/01 00:32:41;;;;;;;3.87;3.20;;;16.90;67.90;15.80;97424.00;;;;5055805;28;20196;-85
2023/10/01 00:35:11;;;;;;;3.87;2.80;;;16.90;67.80;15.80;97417.00;;;;5059953;28;20279;-85
2023/10/01 00:37:39;;;;;;;4.10;2.80;;;16.90;67.80;15.80;97421.00;;;;5053850;28;20233;-85
2023/10/01 00:40:10;;;;;;;4.33;3.03;;;16.90;67.80;15.70;97422.00;;;;5060839;28;20203;-85
2023/10/01 00:42:40;;;;;;;6.07;3.47;;;16.80;67.80;15.70;97418.00;;;;5037624;28;20645;-84
2023/10/01 00:45:11;;;;;;;3.63;2.53;;;16.80;67.90;15.70;97424.00;;;;5060537;28;20202;-84
2023/10/01 00:47:41;;;;;;;4.93;3.20;;;16.80;67.90;15.60;97420.00;;;;5055995;28;20216;-85
2023/10/01 00:50:12;;;;;;;3.43;2.50;;;16.70;67.90;15.60;97419.00;;;;5060746;28;20203;-85
2023/10/01 00:52:41;;;;;;;3.50;2.60;;;16.70;68.00;15.60;97424.00;;;;5035975;28;20197;-85
2023/10/01 00:55:13;;;;;;;4.33;3.10;;;16.70;67.90;15.60;97419.00;;;;5059556;28;20265;-85
2023/10/01 00:57:42;;;;;;;4.40;3.03;;;16.70;67.80;15.50;97420.00;;;;5056419;28;20224;-85
2023/10/01 01:00:15;;;;;;;4.33;2.93;;;16.60;67.70;15.50;97417.00;;;;5060347;28;20203;-85
2023/10/01 01:02:56;;;;;;;3.93;2.90;;;16.60;67.80;15.40;97415.00;;;;5052955;28;20213;-85
2023/10/01 01:05:34;;;;;;;4.17;3.30;;;16.60;67.80;15.40;97410.00;;;;5052527;28;20204;-84
2023/10/01 01:08:09;;;;;;;2.73;2.43;;;16.60;67.80;15.40;97405.00;;;;5054648;28;20303;-85
2023/10/01 01:10:43;;;;;;;4.00;2.93;;;16.50;67.70;15.30;97410.00;;;;5058526;28;20195;-84
2023/10/01 01:13:16;;;;;;;3.67;2.73;;;16.50;67.70;15.30;97408.00;;;;5053717;28;20196;-85
2023/10/01 01:15:45;;;;;;;4.37;3.10;;;16.50;67.70;15.30;97405.00;;;;5030010;28;20193;-85
2023/10/01 01:18:14;;;;;;;4.90;2.73;;;16.40;67.70;15.20;97403.00;;;;5052764;28;20220;-85
2023/10/01 01:20:45;;;;;;;3.53;2.77;;;16.40;67.80;15.20;97401.00;;;;5040455;28;20196;-85
2023/10/01 01:23:18;;;;;;;3.93;2.57;;;16.40;67.90;15.20;97404.00;;;;5054283;28;20224;-85
2023/10/01 01:25:46;;;;;;;3.37;2.73;;;16.30;68.40;15.20;97403.00;;;;5061547;28;20592;-85
2023/10/01 01:28:15;;;;;;;3.87;2.80;;;16.30;67.90;15.10;97392.00;;;;5063009;28;20684;-85
2023/10/01 01:30:43;;;;;;;4.70;2.90;;;16.30;67.90;15.10;97398.00;;;;5056186;28;20299;-85
2023/10/01 01:33:20;;;;;;;4.80;3.30;;;16.30;67.90;15.10;97396.00;;;;5054756;28;20231;-85
2023/10/01 01:35:49;;;;;;;4.10;2.80;;;16.20;67.90;15.00;97393.00;;;;5024962;28;20198;-85
2023/10/01 01:38:20;;;;;;;3.53;2.60;;;16.20;67.90;15.00;97397.00;;;;5058097;28;20221;-85
2023/10/01 01:40:50;;;;;;;3.20;2.77;;;16.20;68.00;15.00;97396.00;;;;5050381;28;20196;-85
2023/10/01 01:43:21;;;;;;;3.83;2.97;;;16.20;68.00;15.00;97389.00;;;;5035587;28;20259;-85
2023/10/01 01:45:54;;;;;;;5.90;3.10;;;16.10;68.00;15.00;97395.00;;;;5050690;28;20204;-85
2023/10/01 01:48:30;;;;;;;4.20;2.93;;;16.10;68.00;14.90;97394.00;;;;5054604;28;20608;-85
2023/10/01 01:51:00;;;;;;;4.90;2.60;;;16.10;68.00;14.90;97391.00;;;;5051714;28;20199;-85
2023/10/01 01:53:34;;;;;;;3.63;2.67;;;16.10;68.00;14.90;97396.00;;;;5032193;28;20198;-85
2023/10/01 01:56:05;;;;;;;3.07;2.33;;;16.00;68.10;14.90;97394.00;;;;5052463;28;20200;-85
2023/10/01 01:58:33;;;;;;;6.30;2.80;;;16.00;68.10;14.80;97398.00;;;;5050060;28;20252;-85
2023/10/01 02:01:17;;;;;;;4.27;3.00;;;16.00;68.10;14.80;97396.00;;;;5051123;28;20203;-85
2023/10/01 02:03:50;;;;;;;4.63;2.77;;;16.00;68.10;14.80;97386.00;;;;5048781;28;20607;-85
2023/10/01 02:06:26;;;;;;;4.37;2.50;;;15.90;68.20;14.80;97392.00;;;;5051638;28;20858;-85
2023/10/01 02:08:57;;;;;;;3.97;2.53;;;15.90;68.30;14.80;97402.00;;;;5032527;28;20755;-85
2023/10/01 02:11:25;;;;;;;3.07;2.70;;;15.90;68.70;14.80;97400.00;;;;5029696;28;20204;-85
2023/10/01 02:13:54;;;;;;;4.53;2.93;;;15.90;68.80;14.80;97395.00;;;;5052918;28;20287;-85
2023/10/01 02:16:37;;;;;;;4.00;2.67;;;15.90;69.00;14.80;97387.00;;;;5015628;28;20772;-85
2023/10/01 02:19:17;;;;;;;4.80;3.00;;;15.90;69.20;14.80;97396.00;;;;5057018;28;20211;-84
2023/10/01 02:21:48;;;;;;;5.27;3.43;;;15.90;69.40;14.80;97391.00;;;;5045021;28;20204;-85
2023/10/01 02:24:22;;;;;;;4.47;3.30;;;15.90;69.40;14.80;97395.00;;;;5060006;28;20192;-85
2023/10/01 02:26:58;;;;;;;4.93;3.40;;;15.90;69.50;14.90;97389.00;;;;5058983;28;20282;-85
2023/10/01 02:29:31;;;;;;;5.53;3.20;;;16.00;69.70;14.90;97389.00;;;;5054891;28;20219;-85
2023/10/01 02:32:04;;;;;;;3.90;2.77;;;16.00;69.80;14.90;97393.00;;;;5062690;28;20290;-85
2023/10/01 02:34:31;;;;;;;4.40;2.73;;;16.00;69.80;14.90;97394.00;;;;5059893;28;20255;-85
2023/10/01 02:37:03;;;;;;;4.73;3.20;;;16.00;69.90;15.00;97386.00;;;;5043819;28;20196;-85
2023/10/01 02:39:31;;;;;;;4.00;2.83;;;16.00;70.00;15.00;97392.00;;;;5059904;28;20259;-85
2023/10/01 02:42:18;;;;;;;4.63;2.80;;;16.10;70.20;15.00;97389.00;;;;5043116;28;20675;-85
2023/10/01 02:44:48;;;;;;;3.73;2.90;;;16.10;70.30;15.00;97380.00;;;;5061186;28;20196;-85
2023/10/01 02:47:20;;;;;;;5.07;3.10;;;16.10;70.90;15.10;97388.00;;;;5042382;28;20699;-85
2023/10/01 02:49:49;;;;;;;3.90;3.00;;;16.10;70.30;15.10;97375.00;;;;5043849;28;20284;-85
2023/10/01 02:52:17;;;;;;;3.60;2.67;;;16.20;70.40;15.10;97375.00;;;;5042711;28;20204;-85
2023/10/01 02:54:47;;;;;;;5.50;2.97;;;16.20;70.50;15.20;97381.00;;;;5060153;28;20283;-85
2023/10/01 02:57:23;;;;;;;5.60;3.50;;;16.20;70.50;15.20;97384.00;;;;5060034;28;20216;-85
2023/10/01 03:00:30;;;;;;;5.37;3.40;;;16.20;70.40;15.20;97378.00;;;;5041459;28;20200;-85
2023/10/01 03:02:59;;;;;;;5.13;3.30;;;16.20;70.30;15.20;97384.00;;;;5036424;28;20234;-85
2023/10/01 03:05:28;;;;;;;4.27;2.90;;;16.30;70.10;15.20;97383.00;;;;5057650;28;20196;-85
2023/10/01 03:07:56;;;;;;;3.90;2.67;;;16.30;70.10;15.20;97384.00;;;;5057020;28;20216;-85
2023/10/01 03:10:29;;;;;;;3.93;2.63;;;16.30;70.10;15.20;97386.00;;;;5018622;28;20207;-85
2023/10/01 03:12:59;;;;;;;3.77;2.77;;;16.30;70.70;15.20;97392.00;;;;5043009;28;20200;-85
2023/10/01 03:15:28;;;;;;;3.67;2.77;;;16.30;69.80;15.20;97391.00;;;;5041369;28;20195;-84
2023/10/01 03:17:58;;;;;;;5.00;2.53;;;16.30;69.80;15.20;97391.00;;;;5061215;28;20224;-84
2023/10/01 03:23:25;;;;;;;3.40;2.73;;;16.30;69.70;15.20;97388.00;;;;5058299;28;20246;-85
2023/10/01 03:26:00;;;;;;;3.33;3.03;;;16.30;69.60;15.20;97376.00;;;;5058187;28;20283;-86
2023/10/01 03:28:33;;;;;;;4.90;2.80;;;16.30;69.50;15.20;97389.00;;;;5033294;28;20767;-85
2023/10/01 03:31:08;;;;;;;2.97;2.20;;;16.30;69.40;15.10;97382.00;;;;5043615;28;20196;-85
2023/10/01 03:33:38;;;;;;;4.83;3.13;;;16.20;69.30;15.10;97380.00;;;;5059016;28;20267;-85
2023/10/01 03:36:09;;;;;;;4.00;2.83;;;16.20;69.30;15.10;97378.00;;;;5054386;28;20201;-85
2023/10/01 03:38:37;;;;;;;4.93;2.80;;;16.20;69.30;15.10;97381.00;;;;5058430;28;20755;-85
2023/10/01 03:41:08;;;;;;;3.50;2.80;;;16.20;69.30;15.10;97385.00;;;;5057480;28;20196;-85
2023/10/01 03:43:37;;;;;;;4.00;2.90;;;16.20;69.30;15.10;97375.00;;;;5058541;28;20762;-85
2023/10/01 03:49:00;;;;;;;4.20;2.90;;;16.20;69.00;15.00;97376.00;;;;5060411;28;20213;-85
2023/10/01 03:54:19;;;;;;;4.03;2.80;;;16.20;68.90;14.90;97374.00;;;;5057501;28;20343;-85
2023/10/01 03:56:56;;;;;;;5.53;3.20;;;16.10;68.80;14.90;97376.00;;;;5058590;28;20201;-85
2023/10/01 03:59:27;;;;;;;3.33;2.50;;;16.10;68.90;14.90;97374.00;;;;5051157;28;20574;-85
2023/10/01 04:02:02;;;;;;;3.20;2.90;;;16.10;68.90;14.90;97377.00;;;;5059444;28;20203;-86
2023/10/01 04:04:56;;;;;;;4.03;3.33;;;16.00;68.80;14.90;97385.00;;;;5053110;28;20231;-85
2023/10/01 04:07:20;;;;;;;4.27;2.60;;;16.00;68.80;14.80;97382.00;;;;5048677;28;20212;-85
2023/10/01 04:09:51;;;;;;;4.60;3.30;;;16.00;68.70;14.80;97381.00;;;;5059599;28;20295;-85
2023/10/01 04:12:20;;;;;;;3.90;2.90;;;16.00;68.70;14.80;97378.00;;;;5038569;28;20203;-86
2023/10/01 04:14:52;;;;;;;3.60;2.90;;;15.90;68.60;14.70;97376.00;;;;5059161;28;20201;-85
2023/10/01 04:17:20;;;;;;;4.27;2.73;;;15.90;68.70;14.70;97372.00;;;;5058689;28;20228;-85
2023/10/01 04:19:49;;;;;;;3.77;2.80;;;15.90;68.70;14.70;97372.00;;;;5059599;28;20204;-85
2023/10/01 04:22:21;;;;;;;4.17;2.83;;;15.90;68.70;14.70;97366.00;;;;5024995;28;21428;-85
2023/10/01 04:25:00;;;;;;;4.83;3.30;;;15.80;68.70;14.60;97371.00;;;;5042776;28;20201;-85
2023/10/01 04:27:30;;;;;;;5.43;3.13;;;15.80;68.80;14.60;97374.00;;;;5037359;28;20217;-85
2023/10/01 04:30:00;;;;;;;4.93;3.50;;;15.80;68.70;14.60;97365.00;;;;5053952;28;20196;-85
2023/10/01 04:32:28;;;;;;;4.30;3.50;;;15.70;68.60;14.60;97367.00;;;;5055518;28;20197;-85
2023/10/01 04:34:58;;;;;;;3.87;2.87;;;15.70;68.60;14.50;97372.00;;;;5058974;28;20243;-85
2023/10/01 04:37:37;;;;;;;3.70;2.73;;;15.70;68.60;14.50;97379.00;;;;5033003;28;20262;-85
2023/10/01 04:40:31;;;;;;;4.47;3.20;;;15.70;68.60;14.50;97380.00;;;;5056908;28;20226;-85
2023/10/01 04:43:01;;;;;;;4.40;3.10;;;15.60;68.60;14.50;97384.00;;;;5047011;28;20220;-85
2023/10/01 04:45:36;;;;;;;3.97;3.00;;;15.60;68.80;14.40;97375.00;;;;5054104;28;20314;-85
2023/10/01 04:48:15;;;;;;;5.93;3.20;;;15.60;68.90;14.50;97379.00;;;;5060819;28;20228;-85
2023/10/01 04:50:42;;;;;;;4.00;3.17;;;15.60;69.10;14.40;97383.00;;;;5058153;28;20657;-85
2023/10/01 04:53:13;;;;;;;5.07;3.13;;;15.60;69.10;14.40;97380.00;;;;5061905;28;20204;-85
2023/10/01 04:55:44;;;;;;;3.80;3.40;;;15.60;69.00;14.40;97377.00;;;;5053187;28;20201;-85
2023/10/01 04:58:14;;;;;;;3.90;3.00;;;15.60;69.00;14.40;97376.00;;;;5061674;28;20235;-85
2023/10/01 05:00:44;;;;;;;4.60;3.23;;;15.60;69.00;14.30;97366.00;;;;5041331;28;20203;-84
2023/10/01 05:03:14;;;;;;;4.93;3.03;;;15.50;68.80;14.30;97371.00;;;;5059435;28;20223;-85
2023/10/01 05:05:42;;;;;;;4.10;3.20;;;15.50;68.90;14.30;97374.00;;;;5041788;28;20209;-85
2023/10/01 05:08:12;;;;;;;4.97;3.07;;;15.50;68.80;14.30;97373.00;;;;5062548;28;20283;-85
2023/10/01 05:10:51;;;;;;;5.73;3.63;;;15.40;68.70;14.20;97373.00;;;;5046106;28;20624;-85
2023/10/01 05:13:22;;;;;;;3.57;2.57;;;15.40;68.70;14.20;97379.00;;;;5044742;28;20615;-85
2023/10/01 05:15:52;;;;;;;3.53;2.50;;;15.40;68.70;14.20;97386.00;;;;5064318;28;20621;-85
2023/10/01 05:18:20;;;;;;;4.40;3.30;;;15.40;68.60;14.20;97387.00;;;;5062984;28;20216;-85
2023/10/01 05:20:48;;;;;;;3.50;3.13;;;15.40;68.70;14.10;97386.00;;;;5046151;28;20201;-85
2023/10/01 05:23:17;;;;;;;5.67;3.30;;;15.30;68.60;14.10;97389.00;;;;5061866;28;20244;-85
2023/10/01 05:25:45;;;;;;;5.53;3.40;;;15.30;68.70;14.10;97385.00;;;;5042346;28;20246;-85
2023/10/01 05:28:31;;;;;;;4.23;3.33;;;15.30;68.60;14.10;97382.00;;;;5040956;28;20317;-85
2023/10/01 05:30:59;;;;;;;3.83;3.07;;;15.30;68.60;14.00;97381.00;;;;5049597;28;20295;-85
2023/10/01 05:33:27;;;;;;;4.83;3.40;;;15.20;68.60;14.00;97382.00;;;;5044787;28;20197;-85
2023/10/01 05:35:57;;;;;;;6.23;3.00;;;15.20;68.80;14.00;97378.00;;;;5063438;28;20289;-84
2023/10/01 05:38:27;;;;;;;3.67;2.73;;;15.20;68.80;14.00;97381.00;;;;5056650;28;20289;-85
2023/10/01 05:40:56;;;;;;;3.73;2.73;;;15.20;68.80;14.00;97384.00;;;;5030899;28;20673;-85
2023/10/01 05:43:27;;;;;;;3.33;2.87;;;15.20;69.00;14.00;97389.00;;;;5035039;28;20225;-84
2023/10/01 05:46:01;;;;;;;4.17;3.17;;;15.20;69.00;14.00;97389.00;;;;5062687;28;20193;-85
2023/10/01 05:48:32;;;;;;;3.97;2.90;;;15.20;69.20;14.00;97383.00;;;;5038295;28;20213;-84
2023/10/01 05:51:00;;;;;;;3.67;2.80;;;15.10;69.20;14.00;97379.00;;;;5057803;28;20196;-85
2023/10/01 05:53:28;;;;;;;4.00;3.00;;;15.10;69.30;14.00;97383.00;;;;5057908;28;20251;-84
2023/10/01 05:55:56;;;;;;;4.73;3.70;;;15.10;69.60;14.00;97377.00;;;;5062850;28;20288;-84
2023/10/01 05:58:26;;;;;;;3.77;3.07;;;15.10;69.70;14.00;97378.00;;;;5054703;28;20252;-84
2023/10/01 06:00:57;;;;;;;4.93;3.10;;;15.10;70.50;14.00;97378.00;;;;5062473;28;20284;-85
2023/10/01 06:03:30;;;;;;;5.93;3.63;;;15.10;70.00;14.00;97383.00;;;;5056349;28;20221;-85
2023/10/01 06:05:59;;;;;;;4.93;3.47;;;15.10;70.20;14.00;97375.00;;;;5062516;28;20224;-84
2023/10/01 06:08:32;;;;;;;4.73;3.10;;;15.20;70.50;14.00;97379.00;;;;5062373;28;20216;-85
2023/10/01 06:11:05;;;;;;;3.43;2.77;;;15.20;71.30;14.00;97384.00;;;;5063504;28;20206;-85
2023/10/01 06:13:35;;;;;;;3.43;2.70;;;15.20;70.80;14.10;97391.00;;;;5062075;28;20201;-85
2023/10/01 06:16:11;;;;;;;4.23;2.97;;;15.20;70.90;14.10;97402.00;;;;5064292;28;20196;-85
2023/10/01 06:18:42;;;;;;;4.10;3.03;;;15.20;71.00;14.10;97399.00;;;;5059402;28;20750;-85
2023/10/01 06:21:12;;;;;;;3.57;3.10;;;15.20;71.10;14.20;97409.00;;;;5045989;28;20204;-85
2023/10/01 06:23:50;;;;;;;3.23;2.43;;;15.30;71.40;14.20;97410.00;;;;5057317;28;20720;-83
2023/10/01 06:26:22;;;;;;;3.27;2.63;;;15.30;71.40;14.30;97414.00;;;;5057747;28;20209;-83
2023/10/01 06:28:51;;;;;;;3.70;3.00;;;15.40;71.70;14.40;97421.00;;;;5063152;28;20223;-83
2023/10/01 06:31:20;;;;;;;4.53;3.73;;;15.40;71.70;14.40;97426.00;;;;5044793;28;20197;-82
2023/10/01 06:33:53;;;;;;;4.17;3.17;;;15.40;72.00;14.50;97427.00;;;;5064747;28;20203;-82
2023/10/01 06:36:23;;;;;;;4.40;3.60;;;15.50;72.10;14.60;97420.00;;;;5060092;28;20279;-82
2023/10/01 06:38:53;;;;;;;4.60;3.13;;;15.60;72.10;14.60;97427.00;;;;5060166;28;20231;-82
2023/10/01 06:41:28;;;;;;;4.63;3.37;;;15.60;72.10;14.70;97432.00;;;;5058301;28;20246;-82
2023/10/01 06:43:56;;;;;;;4.27;3.23;;;15.70;72.30;14.70;97433.00;;;;5044502;28;20220;-83
2023/10/01 06:46:27;;;;;;;4.63;3.53;;;15.80;72.30;14.80;97431.00;;;;5055956;28;20192;-83
2023/10/01 06:48:58;;;;;;;4.97;3.67;;;15.80;72.40;14.90;97434.00;;;;5064406;28;20231;-83
2023/10/01 06:51:37;;;;;;;6.17;4.07;;;15.90;72.50;14.90;97442.00;;;;5057012;28;20596;-83
2023/10/01 06:54:06;;;;;;;5.37;3.93;;;15.90;72.70;15.00;97443.00;;;;5064605;28;20211;-83
2023/10/01 06:56:34;;;;;;;5.37;3.77;;;16.00;72.80;15.10;97441.00;;;;5045236;28;20196;-82
2023/10/01 06:59:13;;;;;;;4.43;3.90;;;16.10;72.90;15.10;97449.00;;;;5066205;28;20223;-83
2023/10/01 07:01:49;;;;;;;6.00;4.23;;;16.10;73.00;15.20;97447.00;;;;5047966;28;20224;-83
2023/10/01 07:04:20;;;;;;;5.30;4.00;;;16.20;73.10;15.30;97443.00;;;;5063173;28;21415;-83
2023/10/01 07:06:50;;;;;;;6.20;4.53;;;16.20;73.20;15.30;97438.00;;;;5058975;28;20223;-82
2023/10/01 07:09:34;;;;;;;5.83;4.40;;;16.30;73.50;15.40;97432.00;;;;5062266;28;20209;-85
2023/10/01 07:12:03;;;;;;;6.13;4.47;;;16.40;73.70;15.50;97433.00;;;;5032462;28;21032;-85
2023/10/01 07:14:45;;;;;;;5.00;4.23;;;16.50;73.80;15.60;97432.00;;;;5064657;28;20283;-83
2023/10/01 07:17:24;;;;;;;7.57;5.10;;;16.50;74.10;15.70;97425.00;;;;5047410;28;20220;-84
2023/10/01 07:20:00;;;;;;;8.60;5.63;;;16.60;74.00;15.80;97427.00;;;;5049745;28;20223;-83
2023/10/01 07:22:32;;;;;;;8.60;5.73;;;16.70;74.10;15.90;97439.00;;;;5057426;28;20199;-82
2023/10/01 07:25:00;;;;;;;7.57;4.90;;;16.80;74.40;16.00;97435.00;;;;5064216;28;20227;-82
2023/10/01 07:27:28;;;;;;;9.57;5.17;;;16.80;74.40;16.20;97449.00;;;;5043105;28;20223;-82
2023/10/01 07:29:56;;;;;;;7.67;5.13;;;16.90;74.50;16.30;97450.00;;;;5046376;28;20287;-82
2023/10/01 07:32:25;;;;;;;9.47;5.83;;;17.00;74.70;16.40;97455.00;;;;5035587;28;20194;-83
2023/10/01 07:34:59;;;;;;;8.97;5.27;;;17.10;74.80;16.50;97460.00;;;;5061853;28;20203;-83
2023/10/01 07:37:31;;;;;;;7.30;5.53;;;17.20;74.90;16.60;97455.00;;;;5053065;28;20209;-82
2023/10/01 07:40:08;;;;;;;6.97;5.17;;;17.30;75.00;16.80;97459.00;;;;5060047;28;20288;-82
2023/10/01 07:42:46;;;;;;;7.73;4.93;;;17.40;75.00;16.90;97455.00;;;;5028876;28;20203;-82
2023/10/01 07:45:16;;;;;;;7.60;4.70;;;17.60;74.80;17.00;97454.00;;;;5045546;28;20243;-82
2023/10/01 07:47:43;;;;;;;8.83;5.63;;;17.70;74.70;17.10;97461.00;;;;5064197;28;20216;-82
2023/10/01 07:50:12;;;;;;;8.10;5.47;;;17.80;74.70;17.30;97455.00;;;;5045275;28;20204;-82
2023/10/01 07:52:41;;;;;;;7.60;5.20;;;17.90;74.80;17.40;97465.00;;;;5044421;28;20247;-83
2023/10/01 07:57:51;;;;;;;8.90;5.83;;;18.20;74.80;17.60;97467.00;;;;5068218;28;20226;-81
2023/10/01 08:00:26;;;;;;;8.47;5.87;;;18.30;74.70;17.80;97467.00;;;;5067860;28;20223;-82
2023/10/01 08:05:40;;;;;;;10.73;5.67;;;18.60;74.60;18.00;97472.00;;;;5049878;28;20242;-82
2023/10/01 08:08:09;;;;;;;7.87;5.20;;;18.70;74.20;18.20;97462.00;;;;5062502;28;20215;-82
2023/10/01 08:10:37;;;;;;;11.30;5.73;;;18.80;74.20;18.40;97467.00;;;;5065157;28;20196;-82
2023/10/01 08:13:06;;;;;;;10.67;5.87;;;18.90;74.20;18.50;97474.00;;;;5068988;28;20722;-82
2023/10/01 08:15:39;;;;;;;9.63;5.77;;;19.10;74.20;18.70;97476.00;;;;5033966;28;20653;-82
2023/10/01 08:20:58;;;;;;;7.23;5.07;;;19.40;73.90;18.90;97481.00;;;;5074279;28;20260;-82
2023/10/01 08:23:33;;;;;;;7.67;5.50;;;19.50;73.60;19.10;97479.00;;;;5066206;28;20251;-82
2023/10/01 08:26:41;;;;;;;8.07;4.73;;;19.70;73.50;19.20;97481.00;;;;5055181;28;20202;-82
2023/10/01 08:28:57;;;;;;;8.73;5.03;;;19.80;73.30;19.30;97487.00;;;;5073269;28;20220;-82
2023/10/01 08:34:27;;;;;;;8.57;5.37;;;20.10;72.80;19.60;97477.00;;;;5068372;28;20222;-82
2023/10/01 08:36:55;;;;;;;7.70;4.90;;;20.20;72.70;19.70;97476.00;;;;5068472;28;20192;-82
2023/10/01 08:39:47;;;;;;;10.43;5.97;;;20.30;72.70;19.80;97487.00;;;;5042653;28;20205;-82
2023/10/01 08:42:16;;;;;;;7.13;4.63;;;20.40;72.40;19.90;97485.00;;;;5051629;28;20860;-82
2023/10/01 08:44:49;;;;;;;9.13;5.10;;;20.50;72.20;20.00;97484.00;;;;5070460;28;20239;-82
2023/10/01 08:47:27;;;;;;;8.60;5.50;;;20.60;72.00;20.10;97481.00;;;;5062728;28;20243;-81
2023/10/01 08:49:57;;;;;;;9.13;5.67;;;20.70;71.90;20.30;97487.00;;;;5073645;28;20275;-82
2023/10/01 08:52:30;;;;;;;8.20;5.40;;;20.90;72.00;20.40;97492.00;;;;5062281;28;20217;-82
2023/10/01 08:54:58;;;;;;;10.20;5.13;;;21.00;72.60;20.50;97493.00;;;;5052429;28;20201;-82
2023/10/01 08:57:38;;;;;;;10.83;5.47;;;21.10;71.80;20.60;97495.00;;;;5078552;28;20248;-83
2023/10/01 09:00:17;;;;;;;7.80;4.97;;;21.20;71.80;20.80;97499.00;;;;5079745;28;20214;-82
2023/10/01 09:02:51;;;;;;;8.23;4.93;;;21.30;71.50;20.90;97497.00;;;;5082400;28;20193;-81
2023/10/01 09:05:26;;;;;;;9.47;5.73;;;21.40;71.10;21.10;97494.00;;;;5073217;28;20240;-82
2023/10/01 09:08:16;;;;;;;9.83;5.83;;;21.60;71.10;21.20;97497.00;;;;5050192;28;20243;-81
2023/10/01 09:10:53;;;;;;;8.87;5.37;;;21.70;71.10;21.40;97495.00;;;;5063391;28;20200;-82
2023/10/01 09:13:26;;;;;;;10.50;5.83;;;21.90;70.50;21.50;97491.00;;;;5071006;28;20199;-81
2023/10/01 09:15:55;;;;;;;9.13;5.27;;;22.00;70.60;21.70;97494.00;;;;5074887;28;20288;-81
2023/10/01 09:18:25;;;;;;;11.17;5.70;;;22.10;70.30;21.80;97490.00;;;;5066634;28;20223;-82
2023/10/01 09:21:08;;;;;;;9.13;5.40;;;22.20;69.90;21.90;97493.00;;;;5072770;28;20250;-82
2023/10/01 09:23:54;;;;;;;9.20;5.80;;;22.40;69.90;22.10;97495.00;;;;5047899;28;20203;-82
2023/10/01 09:26:42;;;;;;;9.17;5.80;;;22.50;69.20;22.20;97498.00;;;;5068231;28;20267;-82
2023/10/01 09:29:22;;;;;;;9.27;4.73;;;22.70;69.10;22.40;97495.00;;;;5063821;28;20209;-83
2023/10/01 09:31:54;;;;;;;8.63;4.93;;;22.80;69.20;22.50;97503.00;;;;5061741;28;20209;-83
2023/10/01 09:34:33;;;;;;;10.80;5.10;;;23.00;69.30;22.60;97502.00;;;;5039127;28;20232;-83
2023/10/01 09:37:12;;;;;;;9.07;5.37;;;23.10;68.90;22.70;97502.00;;;;5048944;28;20278;-83
2023/10/01 09:39:42;;;;;;;9.40;5.20;;;23.20;67.70;22.90;97500.00;;;;5063591;28;20236;-83
2023/10/01 09:42:25;;;;;;;10.23;5.83;;;23.30;67.80;23.00;97499.00;;;;5060751;28;20263;-82
2023/10/01 09:44:54;;;;;;;10.63;6.37;;;23.40;67.20;23.10;97505.00;;;;5066986;28;20221;-83
2023/10/01 09:47:27;;;;;;;11.07;6.03;;;23.50;66.70;23.20;97500.00;;;;5064227;28;20211;-83
2023/10/01 09:49:57;;;;;;;13.40;5.77;;;23.60;66.30;23.30;97510.00;;;;5064153;28;20200;-83
2023/10/01 09:52:30;;;;;;;10.40;6.10;;;23.70;66.20;23.40;97503.00;;;;5058068;28;20234;-83
2023/10/01 09:55:23;;;;;;;10.43;5.37;;;23.80;65.70;23.50;97501.00;;;;5048801;28;20735;-83
2023/10/01 09:57:54;;;;;;;10.03;5.50;;;23.90;64.90;23.60;97499.00;;;;5063691;28;20712;-83
2023/10/01 10:00:39;;;;;;;10.03;5.33;;;24.00;65.50;23.60;97504.00;;;;5061889;28;20199;-83
2023/10/01 10:03:11;;;;;;;10.27;5.43;;;24.10;65.20;23.70;97501.00;;;;5062549;28;20664;-83
2023/10/01 10:05:42;;;;;;;9.80;5.07;;;24.10;64.80;23.80;97499.00;;;;5060699;28;20224;-83
2023/10/01 10:08:20;;;;;;;11.83;6.27;;;24.20;64.50;23.90;97500.00;;;;5045755;28;20260;-81
2023/10/01 10:10:52;;;;;;;9.17;5.40;;;24.30;64.50;23.90;97499.00;;;;5070161;28;20215;-80
2023/10/01 10:13:46;;;;;;;10.30;5.47;;;24.40;64.60;24.00;97499.00;;;;5049109;28;20261;-80
2023/10/01 10:16:32;;;;;;;10.10;5.57;;;24.50;63.00;24.00;97497.00;;;;5071006;28;20782;-80
2023/10/01 10:19:12;;;;;;;12.40;6.17;;;24.50;63.60;24.10;97498.00;;;;5054755;28;20605;-80
2023/10/01 10:22:16;;;;;;;8.23;5.00;;;24.60;62.30;24.20;97493.00;;;;5044053;28;20200;-79
2023/10/01 10:24:54;;;;;;;10.30;5.17;;;24.60;62.30;24.30;97493.00;;;;5063592;28;20243;-80
2023/10/01 10:27:48;;;;;;;10.30;5.80;;;24.70;63.10;24.30;97490.00;;;;5060326;28;20221;-80
2023/10/01 10:30:21;;;;;;;10.37;5.97;;;24.80;62.00;24.50;97487.00;;;;5024346;28;20577;-80
2023/10/01 10:33:39;;;;;;;10.67;5.70;;;24.90;62.80;24.60;97487.00;;;;5064633;28;20205;-79
2023/10/01 10:36:51;;;;;;;9.47;5.30;;;25.00;62.40;24.70;97490.00;;;;5066439;28;20295;-80
2023/10/01 10:40:04;;;;;;;11.07;5.53;;;25.10;61.60;24.80;97485.00;;;;5062628;28;20219;-80
2023/10/01 10:42:33;;;;;;;9.13;4.73;;;25.20;60.20;24.80;97489.00;;;;5001289;28;20203;-81
2023/10/01 10:45:23;;;;;;;10.47;6.23;;;25.20;60.90;24.80;97481.00;;;;5004597;28;20289;-81
2023/10/01 10:47:59;;;;;;;8.33;5.00;;;25.30;59.60;24.90;97480.00;;;;5050209;28;20712;-81
2023/10/01 10:50:48;;;;;;;13.13;6.90;;;25.30;60.20;24.90;97485.00;;;;5064423;28;20196;-81
2023/10/01 10:53:20;;;;;;;9.77;6.00;;;25.40;59.50;24.90;97481.00;;;;5066181;28;20622;-81
2023/10/01 10:56:08;;;;;;;8.67;5.43;;;25.40;59.70;24.90;97473.00;;;;5068850;28;20225;-81
2023/10/01 10:58:39;;;;;;;9.80;6.27;;;25.40;58.30;24.90;97484.00;;;;5063801;28;20259;-81
2023/10/01 11:03:58;;;;;;;11.60;6.00;;;25.30;58.80;24.80;97476.00;;;;5066889;28;20286;-81
2023/10/01 11:06:29;;;;;;;11.10;6.03;;;25.30;58.70;24.80;97476.00;;;;5066126;28;20735;-81
2023/10/01 11:08:58;;;;;;;11.67;6.03;;;25.30;58.50;24.80;97469.00;;;;5046865;28;20616;-82
2023/10/01 11:11:39;;;;;;;9.10;5.27;;;25.30;58.20;24.80;97470.00;;;;5063981;28;20193;-82
2023/10/01 11:14:12;;;;;;;11.37;5.70;;;25.30;57.90;24.80;97470.00;;;;5059310;28;20566;-82
2023/10/01 11:16:44;;;;;;;9.10;5.53;;;25.30;58.50;24.90;97462.00;;;;5058583;28;20204;-82
2023/10/01 11:19:13;;;;;;;11.10;6.10;;;25.30;57.90;24.90;97467.00;;;;5069950;28;20210;-80
2023/10/01 11:21:58;;;;;;;10.00;5.40;;;25.30;58.10;24.90;97470.00;;;;5057182;28;20205;-79
2023/10/01 11:24:32;;;;;;;11.47;5.67;;;25.30;57.50;24.90;97466.00;;;;5052383;28;20292;-80
2023/10/01 11:27:19;;;;;;;9.67;5.50;;;25.30;57.70;24.90;97463.00;;;;5056732;28;20737;-80
2023/10/01 11:30:16;;;;;;;10.00;5.40;;;25.30;57.30;24.90;97457.00;;;;5065131;28;20208;-80
2023/10/01 11:33:12;;;;;;;9.53;5.53;;;25.30;56.90;24.90;97461.00;;;;5064382;28;20197;-80
2023/10/01 11:35:59;;;;;;;8.90;4.93;;;25.30;57.40;24.90;97451.00;;;;5055546;28;20221;-80
2023/10/01 11:38:28;;;;;;;9.40;5.13;;;25.30;57.80;24.90;97456.00;;;;5062393;28;20293;-80
2023/10/01 11:41:08;;;;;;;10.10;5.73;;;25.40;57.70;25.00;97440.00;;;;5070362;28;20200;-80
2023/10/01 11:43:42;;;;;;;8.83;5.27;;;25.40;57.40;25.00;97432.00;;;;5043724;28;20203;-80